Jacksonville, FL

9:04 AM EST on March 02, 2015 (GMT -0500)
Normandy Heights 32205 | Change Station
CLOSE
Current Station
Personal Weather Station
Location: Jacksonville, FL
Elevation: 20 ft
Nearby Weather Stations

Elev 20 ft 30.30 °N, 81.76 °W | Updated 2 seconds ago

Fog
Fog
58.3 °F
Feels Like 58.3 °F
N
0.4
Wind Variable Wind from SW
Gusts 2.5 mph

Today
High -- | Low -- °F
--% Chance of Precip.
Yesterday
High -- | Low -- °F
Precip. -- in
6:52 AM 6:26 PM
Waxing Gibbous, 91% visible
Pressure 30.33 in
Visibility 0.2 miles
Clouds
Dew Point 58 °F
Humidity 99%
Rainfall 0.00 in
Snow Depth Not available.
UV Not available.
Pollen 8.80 out of 12
Air Quality Not available.
Flu Activity Not available.
METAR KNIP 021353Z 01004KT 1/4SM FG VV002 14/13 A3034 RMK AO2 SLP270 70005 T01440128

More Conditions Fewer Conditions

Pressure 30.33 in
Visibility 0.2 miles
Clouds
Dew Point 58 °F
Humidity 99%
Rainfall 0.00 in
Snow Depth Not available.
UV Not available.
Pollen 8.80 out of 12
Air Quality Not available.
Flu Activity Not available.
METAR KNIP 021353Z 01004KT 1/4SM FG VV002 14/13 A3034 RMK AO2 SLP270 70005 T01440128

More Conditions Fewer Conditions

10-Day Weather Forecast

Almanac

Astronomy

Mar. 02, 2015 Rise Set
Actual Time
Civil Twilight
Nautical Twilight
Astronomical Twilight
Moon
Length of Visible Light
Length of Day
Tomorrow will be .
, % of the Moon is Illuminated

Today's Extremes

State Highs State Lows

Community

WunderPhotos

Upload Photos

1,801,784 photos uploaded!

WunderBlogs® & News

Nearby

Air Quality

  Air Quality AQ Index Pollutant
Not available.

Snow Depth

Station Depth Elevation

Earthquake Activity

City Distance Mag. Time & Date
Minimum magnitude displayed is 2.5.

Coastal Water Temperatures

Place Temperature

Nearby Weather Stations

Dense Fog Advisory
Statement as of 7:11 AM EST on March 02, 2015

... Dense fog advisory in effect until 10 am EST this morning...

The National Weather Service in Jacksonville has issued a dense
fog advisory... which is in effect until 10 am EST this morning.

* Visibility... visibilities will be one quarter mile or less.

* Impacts... dense fog will create dangerous driving conditions.

Precautionary/preparedness actions...

A dense fog advisory means visibilities will frequently be
reduced to less than one quarter mile. If driving... slow down...
use your low beam headlights... and leave plenty of distance ahead
of you.




Special Statement
Statement as of 5:37 AM EST on March 02, 2015

... Areas of dense fog this morning...

Areas of dense fog will reduce the visibility down to less than a
quarter of a mile or less at times until around 9 am this morning.
Most visibilities being reported are between a quarter and a half
of a mile. Motorists should slow down and be on the alert for
sudden reductions in visibilites. Navigation along the St Johns
River and nearby Atlantic will be hazardous until the fog lifts.
The fog may linger an hour or two longer along the river and
coast.


Pp